Etusivu
METAR-TAF:

METAR-TAF

Lentoasemat :

Menominee-Marinette Twin County Airport

Menominee, Michigan, Yhdysvallat

Leveyspiiri: 45-08N, Pituuspiiri: 087-38W, korkeus merenpinnasta: 191 m

Tämänhetkinen sää

Tämä raportti tehtiin 29 minuuttia sitten, kello 04.56 UTC
Tuuli 3 kn etelästä/lounaasta
Lämpötila 1°C
Kosteus 80%
Ilmanpaine 1007 hPa
Näkyvyys: 16.1 km
Pilvistä 3000 ft:n korkeudessa

METAR: KMNM 190456Z AUTO 21003KT 10SM OVC030 01/M02 A2973 RMK AO2 RAB03E44 SLP072 P0000 T00111017 400440000 FZRANO $

Aika: 00:25 (05:25 UTC)


TAF: puuttuu

Säähavainnot ja -ennusteet yli 4000 lentoasemalta (METAR- ja TAF-raportit).

Käytössä olevat sääasemat on merkitty karttaan keltaisilla ja punaisilla pisteillä.

Aseta hiiri pisteen päälle nähdäksesi sääaseman nimen.

Klikkaa sitten nähdäksesi säähavainnot ja -ennusteet.

Kartan vaihtaminen: klikkaa mustalla rastilla varustettuja vihreitä pisteitä, niin voit zoomata sisään; viivalla varustettua vihreää pistettä, niin voit zoomata ulos tai vihreitä nuolia, niin pääset viereisille kartoille.


METAR-TAF: